createdAt,value
2022-11-15T00:01:30.457Z,101349.73
2022-11-15T00:04:21.977Z,101347.54
2022-11-15T00:07:33.167Z,101347.55
2022-11-15T00:10:23.763Z,101338.31
2022-11-15T00:13:15.361Z,101336.52
2022-11-15T00:16:09.928Z,101335.27
2022-11-15T00:19:03.216Z,101333.50
2022-11-15T00:21:54.323Z,101334.89
2022-11-15T00:24:45.189Z,101327.77
2022-11-15T00:27:36.445Z,101327.46
2022-11-15T00:30:27.286Z,101328.02
2022-11-15T00:33:18.206Z,101323.50
2022-11-15T00:36:11.792Z,101329.53
2022-11-15T00:39:03.251Z,101327.62
2022-11-15T00:41:53.855Z,101326.41
2022-11-15T00:44:44.756Z,101325.98
2022-11-15T00:47:37.708Z,101319.12
2022-11-15T00:50:28.966Z,101313.25
2022-11-15T00:53:20.342Z,101312.69
2022-11-15T00:56:11.411Z,101311.52
2022-11-15T00:59:02.409Z,101309.39
2022-11-15T01:01:53.359Z,101306.04
2022-11-15T01:04:44.378Z,101305.70
2022-11-15T01:07:35.668Z,101299.98
2022-11-15T01:10:27.022Z,101295.33
2022-11-15T01:13:17.732Z,101290.18
2022-11-15T01:16:14.061Z,101278.94
2022-11-15T01:19:05.153Z,101281.95
2022-11-15T01:22:05.342Z,101274.54
2022-11-15T01:25:00.148Z,101269.08
2022-11-15T01:27:50.984Z,101263.08
2022-11-15T01:30:43.840Z,101260.94
2022-11-15T01:33:36.479Z,101258.35
2022-11-15T01:36:27.887Z,101255.19
2022-11-15T01:39:19.097Z,101253.00
2022-11-15T01:42:14.074Z,101251.52
2022-11-15T01:45:05.581Z,101249.98
2022-11-15T01:47:58.297Z,101247.73
2022-11-15T01:50:50.756Z,101240.10
2022-11-15T01:53:43.994Z,101236.54
2022-11-15T01:56:40.081Z,101229.79
2022-11-15T01:59:32.191Z,101230.14
2022-11-15T02:02:24.154Z,101231.86
2022-11-15T02:05:15.322Z,101224.36
2022-11-15T02:08:06.889Z,101217.29
2022-11-15T02:10:59.947Z,101212.05
2022-11-15T02:13:51.207Z,101202.20
2022-11-15T02:16:51.202Z,101196.46
2022-11-15T02:20:08.761Z,101198.35
2022-11-15T02:23:18.078Z,101196.95
2022-11-15T02:26:32.022Z,101193.79
2022-11-15T02:29:37.377Z,101193.34
2022-11-15T02:32:39.175Z,101198.73
2022-11-15T02:35:39.629Z,101193.01
2022-11-15T02:38:39.694Z,101191.35
2022-11-15T02:41:41.524Z,101197.21
2022-11-15T02:44:39.575Z,101196.12
2022-11-15T02:47:33.158Z,101192.98
2022-11-15T02:50:27.598Z,101199.66
2022-11-15T02:53:19.399Z,101195.54
2022-11-15T02:56:14.047Z,101193.69
2022-11-15T02:59:43.925Z,101188.88
2022-11-15T03:02:50.207Z,101183.33
2022-11-15T03:05:53.779Z,101183.92
2022-11-15T03:08:59.154Z,101175.53
2022-11-15T03:11:56.353Z,101172.41
2022-11-15T03:15:17.681Z,101171.75
2022-11-15T03:18:18.905Z,101174.38
2022-11-15T03:21:15.519Z,101165.45
2022-11-15T03:24:08.748Z,101167.17
2022-11-15T03:27:01.474Z,101163.52
2022-11-15T03:30:20.960Z,101167.11
2022-11-15T03:33:15.530Z,101163.56
2022-11-15T03:36:07.219Z,101160.49
2022-11-15T03:39:03.694Z,101160.41
2022-11-15T03:42:07.321Z,101159.96
2022-11-15T03:45:06.093Z,101151.73
2022-11-15T03:48:01.525Z,101154.42
2022-11-15T03:50:53.008Z,101154.98
2022-11-15T03:53:44.741Z,101151.70
2022-11-15T03:56:36.122Z,101149.55
2022-11-15T03:59:26.961Z,101144.20
2022-11-15T04:02:18.674Z,101135.94
2022-11-15T04:05:10.216Z,101131.98
2022-11-15T04:08:00.966Z,101130.11
2022-11-15T04:10:54.778Z,101130.66
2022-11-15T04:13:46.570Z,101129.42
2022-11-15T04:16:43.590Z,101123.63
2022-11-15T04:19:55.939Z,101119.49
2022-11-15T04:23:04.686Z,101122.98
2022-11-15T04:25:57.829Z,101114.41
2022-11-15T04:29:02.794Z,101106.45
2022-11-15T04:31:54.026Z,101112.77
2022-11-15T04:34:45.031Z,101108.08
2022-11-15T04:37:36.201Z,101106.23
2022-11-15T04:40:29.937Z,101104.61
2022-11-15T04:43:22.849Z,101104.96
2022-11-15T04:46:13.943Z,101099.72
2022-11-15T04:49:04.524Z,101096.15
2022-11-15T04:51:55.377Z,101096.88
2022-11-15T04:54:46.411Z,101094.48
2022-11-15T04:57:37.374Z,101088.31
2022-11-15T05:00:28.780Z,101086.85
2022-11-15T05:03:37.487Z,101083.02
2022-11-15T05:06:28.278Z,101082.98
2022-11-15T05:09:20.152Z,101080.05
2022-11-15T05:12:13.577Z,101078.63
2022-11-15T05:15:05.994Z,101079.99
2022-11-15T05:18:01.622Z,101079.02
2022-11-15T05:20:52.519Z,101070.48
2022-11-15T05:23:43.189Z,101067.55
2022-11-15T05:26:34.387Z,101067.23
2022-11-15T05:29:25.269Z,101067.45
2022-11-15T05:32:16.375Z,101065.89
2022-11-15T05:35:14.655Z,101066.80
2022-11-15T05:38:09.560Z,101062.18
2022-11-15T05:41:01.806Z,101058.20
2022-11-15T05:44:23.563Z,101059.86
2022-11-15T05:47:29.963Z,101054.70
2022-11-15T05:50:22.390Z,101062.58
2022-11-15T05:53:16.762Z,101063.73
2022-11-15T05:56:08.867Z,101065.93
2022-11-15T05:59:01.114Z,101055.50
2022-11-15T06:01:54.792Z,101062.11
2022-11-15T06:04:45.752Z,101056.55
2022-11-15T06:07:37.736Z,101058.10
2022-11-15T06:10:29.992Z,101066.11
2022-11-15T06:13:21.152Z,101068.17
2022-11-15T06:16:12.490Z,101073.13
2022-11-15T06:19:06.647Z,101070.71
2022-11-15T06:21:57.825Z,101066.63
2022-11-15T06:24:49.134Z,101068.81
2022-11-15T06:27:42.496Z,101070.48
2022-11-15T06:30:33.447Z,101070.73
2022-11-15T06:33:24.737Z,101070.73
2022-11-15T06:36:18.241Z,101066.39
2022-11-15T06:39:11.992Z,101075.08
2022-11-15T06:42:02.634Z,101075.70
2022-11-15T06:44:55.673Z,101079.20
2022-11-15T06:47:49.680Z,101073.71
2022-11-15T06:50:41.027Z,101073.24
2022-11-15T06:53:35.482Z,101073.80
2022-11-15T06:56:26.388Z,101079.50
2022-11-15T06:59:17.344Z,101080.98
2022-11-15T07:02:08.126Z,101083.48
2022-11-15T07:04:59.222Z,101084.67
2022-11-15T07:07:57.239Z,101084.02
2022-11-15T07:10:48.156Z,101086.61
2022-11-15T07:13:40.029Z,101090.08
2022-11-15T07:16:30.768Z,101088.02
2022-11-15T07:19:21.739Z,101092.21
2022-11-15T07:22:12.348Z,101087.28
2022-11-15T07:25:03.040Z,101086.38
2022-11-15T07:27:59.730Z,101086.95
2022-11-15T07:30:50.606Z,101086.45
2022-11-15T07:33:41.271Z,101093.49
2022-11-15T07:36:32.377Z,101095.10
2022-11-15T07:39:23.363Z,101091.65
2022-11-15T07:42:32.014Z,101087.48
2022-11-15T07:45:23.305Z,101081.80
2022-11-15T07:48:17.964Z,101082.85
2022-11-15T07:51:13.874Z,101080.88
2022-11-15T07:54:05.599Z,101076.66
2022-11-15T07:56:57.888Z,101075.67
2022-11-15T07:59:51.423Z,101074.51
2022-11-15T08:02:42.932Z,101071.41
2022-11-15T08:05:34.027Z,101069.30
2022-11-15T08:08:25.060Z,101060.04
2022-11-15T08:11:15.969Z,101062.94
2022-11-15T08:14:46.325Z,101063.40
2022-11-15T08:17:37.412Z,101058.90
2022-11-15T08:20:31.143Z,101059.10
2022-11-15T08:23:21.820Z,101057.80
2022-11-15T08:26:13.410Z,101057.12
2022-11-15T08:29:04.383Z,101056.35
2022-11-15T08:31:58.514Z,101050.88
2022-11-15T08:35:18.474Z,101050.28
2022-11-15T08:38:16.426Z,101048.20
2022-11-15T08:41:08.202Z,101048.93
2022-11-15T08:43:59.232Z,101047.28
2022-11-15T08:46:50.649Z,101052.45
2022-11-15T08:49:43.773Z,101053.22
2022-11-15T08:52:34.692Z,101050.72
2022-11-15T08:55:25.855Z,101049.21
2022-11-15T08:58:16.565Z,101047.62
2022-11-15T09:01:08.146Z,101054.11
2022-11-15T09:03:59.539Z,101050.23
2022-11-15T09:06:50.517Z,101051.19
2022-11-15T09:09:46.540Z,101047.88
2022-11-15T09:12:38.156Z,101038.70
2022-11-15T09:15:28.998Z,101039.85
2022-11-15T09:18:22.390Z,101038.51
2022-11-15T09:21:13.822Z,101034.96
2022-11-15T09:24:05.332Z,101030.29
2022-11-15T09:26:56.133Z,101033.92
2022-11-15T09:29:49.962Z,101029.61
2022-11-15T09:32:40.702Z,101027.76
2022-11-15T09:35:31.504Z,101031.59
2022-11-15T09:38:22.577Z,101026.51
2022-11-15T09:41:40.198Z,101025.48
2022-11-15T09:44:47.763Z,101019.70
2022-11-15T09:48:11.743Z,101018.10
2022-11-15T09:51:14.092Z,101017.05
2022-11-15T09:56:47.392Z,100999.81
2022-11-15T09:59:40.590Z,100999.08
2022-11-15T10:02:26.033Z,100999.15
2022-11-15T10:05:00.060Z,100996.77
2022-11-15T10:07:42.798Z,100996.35
2022-11-15T10:10:24.946Z,100996.65
2022-11-15T10:12:57.573Z,100996.43
2022-11-15T10:15:30.025Z,100990.91
2022-11-15T10:18:23.445Z,100984.73
2022-11-15T10:21:01.290Z,100977.80
2022-11-15T10:23:34.286Z,100976.52
2022-11-15T10:26:13.637Z,100978.49
2022-11-15T10:28:46.330Z,100979.48
2022-11-15T10:31:27.521Z,100971.48
2022-11-15T10:34:12.643Z,100973.45
2022-11-15T10:36:56.121Z,100977.98
2022-11-15T10:39:28.928Z,100969.98
2022-11-15T10:42:18.015Z,100968.96
2022-11-15T10:44:50.438Z,100968.15
2022-11-15T10:47:38.826Z,100969.33
2022-11-15T10:50:33.165Z,100970.30
2022-11-15T10:53:06.430Z,100966.78
2022-11-15T10:55:39.398Z,100960.06
2022-11-15T10:58:29.414Z,100966.00
2022-11-15T11:01:13.174Z,100968.84
2022-11-15T11:03:47.277Z,100966.48
2022-11-15T11:06:23.624Z,100966.96
2022-11-15T11:09:01.040Z,100967.35
2022-11-15T11:11:52.034Z,100965.77
2022-11-15T11:14:30.599Z,100962.43
2022-11-15T11:17:11.439Z,100956.94
2022-11-15T11:20:02.846Z,100957.95
2022-11-15T11:22:47.032Z,100950.48
2022-11-15T11:25:30.574Z,100951.66
2022-11-15T11:28:19.716Z,100949.27
2022-11-15T11:31:04.812Z,100941.34
2022-11-15T11:33:44.223Z,100935.37
2022-11-15T11:36:28.876Z,100941.39
2022-11-15T11:39:21.461Z,100934.70
2022-11-15T11:42:14.835Z,100932.30
2022-11-15T11:45:01.292Z,100930.88
2022-11-15T11:47:40.137Z,100928.29
2022-11-15T11:50:20.827Z,100920.86
2022-11-15T11:53:04.316Z,100925.66
2022-11-15T11:55:40.174Z,100925.88
2022-11-15T11:58:20.836Z,100919.77
2022-11-15T12:00:57.729Z,100910.63
2022-11-15T12:03:40.256Z,100908.73
2022-11-15T12:06:26.935Z,100909.13
2022-11-15T12:09:03.374Z,100898.80
2022-11-15T12:11:44.204Z,100899.20
2022-11-15T12:14:30.330Z,100905.60
2022-11-15T12:17:05.366Z,100906.63
2022-11-15T12:19:40.858Z,100899.89
2022-11-15T12:22:22.227Z,100895.61
2022-11-15T12:24:59.713Z,100898.08
2022-11-15T12:27:39.109Z,100895.95
2022-11-15T12:30:17.307Z,100895.79
2022-11-15T12:32:57.949Z,100893.05
2022-11-15T12:35:38.298Z,100895.52
2022-11-15T12:38:36.498Z,100894.30
2022-11-15T12:41:27.212Z,100893.89
2022-11-15T12:44:00.275Z,100889.19
2022-11-15T12:47:04.567Z,100890.83
2022-11-15T12:49:50.320Z,100894.19
2022-11-15T12:52:23.393Z,100885.77
2022-11-15T12:55:04.185Z,100886.63
2022-11-15T12:57:46.263Z,100881.32
2022-11-15T13:00:48.131Z,100870.27
2022-11-15T13:03:37.170Z,100883.20
2022-11-15T13:06:44.950Z,100884.77
2022-11-15T13:10:00.305Z,100885.66
2022-11-15T13:12:53.184Z,100870.87
2022-11-15T13:15:58.975Z,100882.43
2022-11-15T13:18:45.077Z,100882.08
2022-11-15T13:21:44.155Z,100879.91
2022-11-15T13:24:21.161Z,100877.52
2022-11-15T13:26:53.309Z,100879.95
2022-11-15T13:29:25.590Z,100877.48
2022-11-15T13:31:57.938Z,100875.73
2022-11-15T13:37:36.768Z,100868.86
2022-11-15T13:40:25.993Z,100867.38
2022-11-15T13:42:58.767Z,100868.78
2022-11-15T13:45:32.349Z,100870.42
2022-11-15T13:48:08.137Z,100869.13
2022-11-15T13:50:42.196Z,100871.59
2022-11-15T13:53:15.653Z,100872.08
2022-11-15T13:55:47.759Z,100871.68
2022-11-15T13:58:24.131Z,100866.66
2022-11-15T14:01:07.300Z,100864.36
2022-11-15T14:03:49.574Z,100859.38
2022-11-15T14:06:24.582Z,100855.64
2022-11-15T14:09:21.867Z,100846.11
2022-11-15T14:11:56.222Z,100843.20
2022-11-15T14:14:30.491Z,100843.53
2022-11-15T14:17:03.511Z,100843.60
2022-11-15T14:19:42.008Z,100847.20
2022-11-15T14:22:22.125Z,100844.61
2022-11-15T14:25:15.188Z,100847.09
2022-11-15T14:28:08.035Z,100848.09
2022-11-15T14:30:40.922Z,100849.71
2022-11-15T14:33:33.654Z,100844.66
2022-11-15T14:36:13.038Z,100837.59
2022-11-15T14:38:46.299Z,100836.74
2022-11-15T14:41:27.404Z,100835.64
2022-11-15T14:43:59.711Z,100829.51
2022-11-15T14:46:32.068Z,100832.20
2022-11-15T14:49:04.313Z,100830.59
2022-11-15T14:51:36.529Z,100827.24
2022-11-15T14:54:10.443Z,100831.93
2022-11-15T14:56:43.864Z,100831.27
2022-11-15T14:59:16.231Z,100829.81
2022-11-15T15:01:48.553Z,100828.45
2022-11-15T15:04:21.995Z,100824.19
2022-11-15T15:06:56.655Z,100819.20
2022-11-15T15:09:28.841Z,100820.02
2022-11-15T15:12:05.910Z,100822.44
2022-11-15T15:14:38.761Z,100823.03
2022-11-15T15:17:11.219Z,100821.29
2022-11-15T15:19:43.545Z,100816.35
2022-11-15T15:22:19.927Z,100813.74
2022-11-15T15:24:52.141Z,100814.73
2022-11-15T15:27:24.382Z,100818.20
2022-11-15T15:29:56.476Z,100822.53
2022-11-15T15:32:28.738Z,100827.89
2022-11-15T15:35:01.135Z,100821.48
2022-11-15T15:37:35.032Z,100821.55
2022-11-15T15:40:14.252Z,100824.68
2022-11-15T15:42:46.569Z,100823.97
2022-11-15T15:45:19.932Z,100818.14
2022-11-15T15:47:53.201Z,100816.55
2022-11-15T15:50:27.605Z,100811.64
2022-11-15T15:53:02.899Z,100804.64
2022-11-15T15:55:35.931Z,100802.85
2022-11-15T15:58:09.261Z,100806.34
2022-11-15T16:00:41.893Z,100806.22
2022-11-15T16:03:14.091Z,100803.19
2022-11-15T16:05:46.520Z,100804.64
2022-11-15T16:08:23.577Z,100800.92
2022-11-15T16:10:55.738Z,100803.90
2022-11-15T16:13:29.901Z,100803.27
2022-11-15T16:16:02.366Z,100802.44
2022-11-15T16:18:35.677Z,100798.86
2022-11-15T16:21:09.839Z,100797.25
2022-11-15T16:23:44.516Z,100800.27
2022-11-15T16:26:23.395Z,100803.39
2022-11-15T16:28:56.006Z,100805.27
2022-11-15T16:31:28.352Z,100798.21
2022-11-15T16:34:00.580Z,100800.22
2022-11-15T16:36:36.594Z,100793.48
2022-11-15T16:39:10.789Z,100800.08
2022-11-15T16:41:44.248Z,100798.81
2022-11-15T16:44:16.752Z,100796.11
2022-11-15T16:46:52.055Z,100791.97
2022-11-15T16:49:24.805Z,100789.69
2022-11-15T16:51:56.977Z,100790.19
2022-11-15T16:54:29.117Z,100785.47
2022-11-15T16:57:01.317Z,100783.34
2022-11-15T16:59:38.129Z,100781.19
2022-11-15T17:02:15.353Z,100779.87
2022-11-15T17:04:47.900Z,100780.79
2022-11-15T17:07:20.148Z,100778.37
2022-11-15T17:09:55.118Z,100776.42
2022-11-15T17:12:27.407Z,100773.77
2022-11-15T17:14:59.567Z,100784.75
2022-11-15T17:17:31.768Z,100786.45
2022-11-15T17:20:05.145Z,100785.65
2022-11-15T17:22:38.908Z,100786.84
2022-11-15T17:25:12.364Z,100781.06
2022-11-15T17:27:46.264Z,100786.42
2022-11-15T17:30:20.477Z,100790.31
2022-11-15T17:32:52.595Z,100789.19
2022-11-15T17:35:24.697Z,100787.20
2022-11-15T17:37:56.812Z,100788.27
2022-11-15T17:40:28.969Z,100788.02
2022-11-15T17:43:01.165Z,100790.52
2022-11-15T17:45:33.397Z,100789.09
2022-11-15T17:48:05.704Z,100783.61
2022-11-15T17:50:38.177Z,100783.59
2022-11-15T17:53:10.919Z,100780.03
2022-11-15T17:55:43.259Z,100784.44
2022-11-15T17:58:18.859Z,100783.50
2022-11-15T18:00:51.523Z,100787.84
2022-11-15T18:03:24.165Z,100788.53
2022-11-15T18:05:56.426Z,100786.23
2022-11-15T18:08:29.156Z,100787.45
2022-11-15T18:11:11.253Z,100785.04
2022-11-15T18:13:50.943Z,100784.52
2022-11-15T18:16:27.402Z,100778.14
2022-11-15T18:19:00.584Z,100780.55
2022-11-15T18:21:34.807Z,100780.58
2022-11-15T18:24:07.912Z,100778.52
2022-11-15T18:26:39.978Z,100777.98
2022-11-15T18:29:12.605Z,100774.46
2022-11-15T18:31:47.669Z,100769.63
2022-11-15T18:34:20.297Z,100766.80
2022-11-15T18:36:54.448Z,100768.25
2022-11-15T18:39:26.593Z,100768.34
2022-11-15T18:41:58.737Z,100770.14
2022-11-15T18:44:35.445Z,100766.72
2022-11-15T18:47:12.119Z,100765.09
2022-11-15T18:49:44.231Z,100762.55
2022-11-15T18:52:16.431Z,100760.70
2022-11-15T18:54:48.573Z,100754.38
2022-11-15T18:57:20.824Z,100751.85
2022-11-15T18:59:52.925Z,100751.02
2022-11-15T19:02:24.998Z,100748.52
2022-11-15T19:04:57.329Z,100747.39
2022-11-15T19:07:29.602Z,100747.93
2022-11-15T19:10:01.975Z,100749.67
2022-11-15T19:12:34.376Z,100750.34
2022-11-15T19:15:10.252Z,100750.73
2022-11-15T19:17:42.763Z,100748.03
2022-11-15T19:20:15.191Z,100745.80
2022-11-15T19:22:50.989Z,100746.77
2022-11-15T19:25:28.794Z,100745.14
2022-11-15T19:28:00.980Z,100745.87
2022-11-15T19:30:37.167Z,100740.55
2022-11-15T19:33:09.712Z,100745.70
2022-11-15T19:35:45.450Z,100743.18
2022-11-15T19:38:17.929Z,100756.59
2022-11-15T19:43:36.362Z,100762.20
2022-11-15T19:46:11.679Z,100762.91
2022-11-15T19:48:44.624Z,100764.23
2022-11-15T19:51:19.784Z,100760.13
2022-11-15T19:54:02.434Z,100761.05
2022-11-15T19:56:35.932Z,100759.52
2022-11-15T19:59:08.305Z,100758.73
2022-11-15T20:01:40.808Z,100755.55
2022-11-15T20:04:34.776Z,100751.33
2022-11-15T20:07:07.018Z,100746.72
2022-11-15T20:09:39.675Z,100746.08
2022-11-15T20:12:12.205Z,100751.39
2022-11-15T20:14:46.017Z,100750.17
2022-11-15T20:17:19.189Z,100754.36
2022-11-15T20:19:52.365Z,100757.66
2022-11-15T20:22:24.773Z,100754.83
2022-11-15T20:24:57.206Z,100757.28
2022-11-15T20:27:54.873Z,100752.36
2022-11-15T20:30:27.277Z,100748.65
2022-11-15T20:32:59.727Z,100751.69
2022-11-15T20:35:47.192Z,100745.66
2022-11-15T20:38:20.585Z,100743.31
2022-11-15T20:40:57.565Z,100749.95
2022-11-15T20:43:32.206Z,100749.19
2022-11-15T20:46:04.398Z,100755.27
2022-11-15T20:48:36.767Z,100753.44
2022-11-15T20:51:12.473Z,100760.65
2022-11-15T20:53:45.794Z,100762.16
2022-11-15T20:56:19.489Z,100762.15
2022-11-15T20:58:53.468Z,100761.36
2022-11-15T21:01:26.045Z,100760.79
2022-11-15T21:04:00.553Z,100761.48
2022-11-15T21:06:36.266Z,100754.61
2022-11-15T21:09:26.104Z,100747.52
2022-11-15T21:12:13.711Z,100744.20
2022-11-15T21:14:48.260Z,100742.37
2022-11-15T21:17:21.597Z,100745.44
2022-11-15T21:19:53.972Z,100745.73
2022-11-15T21:22:28.489Z,100747.29
2022-11-15T21:25:30.033Z,100740.04
2022-11-15T21:28:10.141Z,100734.46
2022-11-15T21:30:42.569Z,100738.39
2022-11-15T21:33:14.917Z,100737.66
2022-11-15T21:35:49.185Z,100737.08
2022-11-15T21:38:23.505Z,100731.08
2022-11-15T21:41:05.244Z,100728.48
2022-11-15T21:43:37.368Z,100723.41
2022-11-15T21:46:10.545Z,100724.04
2022-11-15T21:48:42.685Z,100718.50
2022-11-15T21:51:19.011Z,100717.52
2022-11-15T21:53:51.463Z,100708.55
2022-11-15T21:56:23.660Z,100710.43
2022-11-15T21:58:56.379Z,100709.71
2022-11-15T22:01:47.413Z,100709.66
2022-11-15T22:04:21.592Z,100709.64
2022-11-15T22:06:54.183Z,100709.52
2022-11-15T22:09:26.372Z,100708.19
2022-11-15T22:12:09.019Z,100707.98
2022-11-15T22:14:41.244Z,100714.98
2022-11-15T22:17:15.837Z,100719.58
2022-11-15T22:19:52.829Z,100718.92
2022-11-15T22:22:25.625Z,100710.34
2022-11-15T22:24:58.291Z,100707.41
2022-11-15T22:27:30.549Z,100704.77
2022-11-15T22:30:02.738Z,100698.45
2022-11-15T22:32:34.924Z,100684.70
2022-11-15T22:35:07.785Z,100673.70
2022-11-15T22:37:39.998Z,100667.91
2022-11-15T22:40:13.557Z,100673.30
2022-11-15T22:42:45.747Z,100680.25
2022-11-15T22:45:18.416Z,100683.34
2022-11-15T22:47:50.719Z,100677.95
2022-11-15T22:50:23.240Z,100684.55
2022-11-15T22:52:55.580Z,100684.48
2022-11-15T22:55:27.747Z,100681.58
2022-11-15T22:57:59.945Z,100684.27
2022-11-15T23:00:34.361Z,100684.23
2022-11-15T23:03:06.864Z,100683.86
2022-11-15T23:05:47.135Z,100680.40
2022-11-15T23:08:20.309Z,100684.23
2022-11-15T23:11:10.200Z,100681.86
2022-11-15T23:13:42.464Z,100686.23
2022-11-15T23:16:23.912Z,100682.95
2022-11-15T23:19:00.561Z,100677.82
2022-11-15T23:21:54.500Z,100671.78
2022-11-15T23:24:27.480Z,100668.59
2022-11-15T23:27:02.963Z,100666.19
2022-11-15T23:29:55.314Z,100661.04
2022-11-15T23:32:45.062Z,100664.30
2022-11-15T23:35:18.006Z,100662.45
2022-11-15T23:37:50.222Z,100657.17
2022-11-15T23:40:22.343Z,100652.58
2022-11-15T23:42:55.352Z,100656.88
2022-11-15T23:45:28.060Z,100663.60
2022-11-15T23:48:19.248Z,100663.79
2022-11-15T23:50:51.771Z,100661.75
2022-11-15T23:53:24.035Z,100663.38
2022-11-15T23:56:02.683Z,100663.90
2022-11-15T23:58:35.348Z,100668.11
